createdAt,value
2022-10-22T00:00:19.977Z,10.82
2022-10-22T00:05:25.120Z,8.02
2022-10-22T00:10:30.144Z,8.05
2022-10-22T00:15:37.841Z,9.32
2022-10-22T00:20:42.910Z,12.15
2022-10-22T00:25:47.917Z,9.38
2022-10-22T00:31:01.571Z,7.88
2022-10-22T00:36:06.823Z,10.43
2022-10-22T00:41:11.988Z,8.55
2022-10-22T00:46:19.740Z,11.13
2022-10-22T00:51:26.622Z,8.60
2022-10-22T00:56:36.706Z,8.32
2022-10-22T01:01:45.421Z,9.55
2022-10-22T01:06:51.256Z,7.18
2022-10-22T01:12:03.372Z,7.45
2022-10-22T01:17:14.043Z,10.13
2022-10-22T01:22:22.171Z,8.93
2022-10-22T01:27:38.166Z,8.05
2022-10-22T01:32:48.718Z,7.18
2022-10-22T01:37:56.105Z,8.75
2022-10-22T01:43:02.657Z,9.38
2022-10-22T01:48:19.644Z,9.80
2022-10-22T01:53:36.070Z,10.10
2022-10-22T01:58:45.770Z,8.60
2022-10-22T02:03:59.416Z,9.88
2022-10-22T02:09:07.785Z,8.75
2022-10-22T02:14:14.246Z,9.48
2022-10-22T02:19:27.901Z,10.38
2022-10-22T02:24:32.927Z,14.40
2022-10-22T02:29:41.749Z,14.05
2022-10-22T02:34:49.777Z,10.38
2022-10-22T02:40:02.203Z,9.57
2022-10-22T02:45:08.094Z,12.13
2022-10-22T02:50:15.942Z,8.85
2022-10-22T02:55:21.053Z,9.07
2022-10-22T03:00:26.047Z,12.48
2022-10-22T03:05:33.763Z,8.50
2022-10-22T03:10:38.741Z,8.18
2022-10-22T03:15:43.781Z,11.40
2022-10-22T03:20:51.468Z,11.50
2022-10-22T03:31:01.147Z,11.30
2022-10-22T03:36:10.329Z,7.70
2022-10-22T03:41:15.455Z,12.63
2022-10-22T03:46:20.472Z,9.52
2022-10-22T03:51:29.666Z,8.15
2022-10-22T03:56:34.585Z,8.93
2022-10-22T04:01:39.606Z,9.32
2022-10-22T04:06:47.212Z,7.10
2022-10-22T04:11:52.260Z,13.50
2022-10-22T04:16:57.469Z,10.15
2022-10-22T04:22:05.340Z,9.75
2022-10-22T04:27:10.523Z,15.38
2022-10-22T04:32:15.696Z,11.70
2022-10-22T04:37:24.021Z,10.18
2022-10-22T04:42:29.167Z,11.15
2022-10-22T04:47:34.700Z,12.93
2022-10-22T04:52:42.415Z,9.13
2022-10-22T04:57:47.529Z,10.02
2022-10-22T05:02:53.361Z,8.88
2022-10-22T05:08:00.936Z,9.63
2022-10-22T05:13:06.011Z,8.77
2022-10-22T05:18:11.062Z,8.77
2022-10-22T05:23:21.124Z,14.20
2022-10-22T05:28:26.728Z,12.38
2022-10-22T05:33:33.091Z,14.48
2022-10-22T05:38:40.884Z,8.90
2022-10-22T05:48:53.068Z,10.38
2022-10-22T05:54:02.143Z,9.55
2022-10-22T05:59:07.632Z,13.55
2022-10-22T06:04:16.340Z,10.32
2022-10-22T06:09:26.715Z,10.38
2022-10-22T06:14:32.839Z,10.05
2022-10-22T06:19:37.978Z,17.52
2022-10-22T06:24:45.832Z,14.93
2022-10-22T06:29:51.584Z,14.45
2022-10-22T06:34:56.605Z,9.77
2022-10-22T06:40:04.463Z,12.65
2022-10-22T06:45:11.555Z,14.55
2022-10-22T06:50:16.863Z,15.82
2022-10-22T07:01:46.022Z,9.02
2022-10-22T07:06:51.117Z,14.18
2022-10-22T07:11:56.359Z,14.63
2022-10-22T07:17:04.099Z,13.27
2022-10-22T07:22:09.240Z,10.20
2022-10-22T07:27:14.410Z,11.85
2022-10-22T07:32:23.913Z,10.10
2022-10-22T07:37:29.090Z,15.50
2022-10-22T07:42:34.588Z,10.68
2022-10-22T07:47:42.560Z,13.80
2022-10-22T07:52:47.816Z,8.95
2022-10-22T07:57:52.860Z,14.13
2022-10-22T08:03:00.516Z,14.18
2022-10-22T08:08:05.415Z,11.27
2022-10-22T08:13:10.785Z,15.63
2022-10-22T08:18:18.577Z,10.75
2022-10-22T08:23:26.227Z,15.43
2022-10-22T08:28:37.203Z,11.23
2022-10-22T08:33:45.468Z,9.20
2022-10-22T08:38:50.520Z,12.18
2022-10-22T08:44:10.228Z,10.13
2022-10-22T08:54:32.031Z,13.90
2022-10-22T09:05:06.723Z,13.40
2022-10-22T09:10:16.204Z,14.38
2022-10-22T09:15:22.360Z,12.65
2022-10-22T09:20:36.396Z,20.92
2022-10-22T09:25:41.853Z,17.00
2022-10-22T09:30:46.966Z,15.95
2022-10-22T09:35:59.720Z,9.73
2022-10-22T09:41:05.725Z,12.00
2022-10-22T09:46:11.931Z,17.02
2022-10-22T09:51:48.982Z,17.98
2022-10-22T09:57:28.406Z,13.30
2022-10-22T10:02:39.682Z,11.85
2022-10-22T10:07:48.616Z,18.48
2022-10-22T10:13:18.449Z,12.75
2022-10-22T10:25:03.596Z,17.88
2022-10-22T10:30:21.844Z,14.07
2022-10-22T10:36:06.963Z,15.35
2022-10-22T10:41:36.456Z,11.40
2022-10-22T10:46:59.184Z,12.27
2022-10-22T10:59:21.176Z,22.10
2022-10-22T11:11:14.573Z,23.45
2022-10-22T11:33:28.994Z,21.55
2022-10-22T11:38:35.996Z,17.50
2022-10-22T11:56:04.469Z,20.60
2022-10-22T12:01:47.951Z,14.75
2022-10-22T12:07:14.466Z,23.50
2022-10-22T12:12:46.785Z,23.85
2022-10-22T14:16:18.965Z,16.08
2022-10-22T14:22:08.622Z,23.92
2022-10-22T14:38:28.983Z,23.27
2022-10-22T14:44:06.487Z,23.48
2022-10-22T14:49:11.863Z,18.20
2022-10-22T14:54:19.779Z,19.80
2022-10-22T14:59:25.089Z,18.13
2022-10-22T15:04:30.776Z,20.13
2022-10-22T15:09:38.989Z,20.38
2022-10-22T15:14:57.759Z,20.50
2022-10-22T15:20:04.479Z,24.73
2022-10-22T15:25:29.167Z,26.52
2022-10-22T15:31:07.641Z,29.60
2022-10-22T15:36:44.925Z,30.08
2022-10-22T15:41:54.522Z,25.75
2022-10-22T15:47:06.606Z,26.48
2022-10-22T15:52:16.378Z,27.90
2022-10-22T15:58:03.443Z,32.83
2022-10-22T16:03:43.551Z,46.45
2022-10-22T16:20:36.032Z,32.13
2022-10-22T16:25:45.059Z,31.50
2022-10-22T16:30:54.028Z,30.27
2022-10-22T16:36:03.887Z,25.23
2022-10-22T16:41:14.540Z,30.27
2022-10-22T16:46:28.950Z,35.85
2022-10-22T16:51:48.219Z,46.85
2022-10-22T16:57:09.687Z,32.58
2022-10-22T17:02:38.683Z,28.60
2022-10-22T17:07:46.659Z,29.33
2022-10-22T17:12:52.156Z,45.40
2022-10-22T17:18:04.933Z,60.50
2022-10-22T17:23:09.911Z,55.55
2022-10-22T17:28:48.427Z,46.25
2022-10-22T17:34:16.540Z,25.15
2022-10-22T17:39:30.544Z,31.52
2022-10-22T17:44:35.683Z,31.00
2022-10-22T17:49:45.931Z,25.70
2022-10-22T17:54:55.328Z,19.20
2022-10-22T18:00:00.715Z,22.25
2022-10-22T18:05:12.897Z,17.60
2022-10-22T18:10:18.229Z,19.67
2022-10-22T18:15:40.969Z,17.58
2022-10-22T18:20:52.296Z,29.05
2022-10-22T18:26:14.637Z,11.50
2022-10-22T18:31:53.085Z,10.02
2022-10-22T18:42:32.465Z,6.70
2022-10-22T18:48:01.030Z,9.82
2022-10-22T18:53:59.084Z,7.45
2022-10-22T18:59:17.719Z,6.47
2022-10-22T19:04:24.803Z,4.78
2022-10-22T19:09:33.062Z,5.30
2022-10-22T19:26:43.243Z,5.88
2022-10-22T19:31:56.959Z,7.57
2022-10-22T19:37:39.716Z,8.23
2022-10-22T19:42:49.927Z,5.75
2022-10-22T19:47:57.818Z,7.43
2022-10-22T19:53:06.008Z,7.18
2022-10-22T19:58:13.052Z,7.55
2022-10-22T20:03:27.345Z,10.52
2022-10-22T20:08:34.746Z,8.57
2022-10-22T20:18:47.661Z,7.25
2022-10-22T20:23:56.885Z,6.10
2022-10-22T20:29:02.445Z,5.45
2022-10-22T20:34:10.194Z,6.93
2022-10-22T20:39:16.811Z,5.82
2022-10-22T20:44:22.243Z,6.43
2022-10-22T20:49:33.398Z,7.45
2022-10-22T20:54:41.655Z,6.78
2022-10-22T21:00:04.640Z,9.15
2022-10-22T21:06:22.913Z,11.25
2022-10-22T21:12:24.080Z,9.20
2022-10-22T21:18:06.020Z,10.60
2022-10-22T21:23:13.893Z,7.50
2022-10-22T21:28:19.190Z,7.70
2022-10-22T21:33:24.727Z,8.32
2022-10-22T21:38:37.930Z,9.85
2022-10-22T21:43:44.920Z,7.80
2022-10-22T21:48:59.517Z,7.88
2022-10-22T21:54:12.879Z,9.65
2022-10-22T22:00:06.722Z,8.32
2022-10-22T22:05:38.337Z,9.07
2022-10-22T22:11:29.868Z,7.88
2022-10-22T22:16:37.743Z,11.38
2022-10-22T22:22:04.625Z,10.43
2022-10-22T22:32:28.189Z,9.40
2022-10-22T22:43:11.188Z,9.65
2022-10-22T22:48:16.453Z,11.00
2022-10-22T22:53:21.613Z,8.10
2022-10-22T22:58:29.559Z,9.55
2022-10-22T23:03:34.757Z,9.73
2022-10-22T23:08:41.723Z,8.48
2022-10-22T23:13:49.963Z,9.98
2022-10-22T23:19:10.524Z,10.15
2022-10-22T23:24:37.799Z,10.57
2022-10-22T23:29:54.340Z,8.45
2022-10-22T23:35:09.110Z,9.15
2022-10-22T23:40:30.196Z,8.63
2022-10-22T23:45:50.951Z,9.60
2022-10-22T23:51:20.016Z,8.52
2022-10-22T23:56:36.179Z,7.68
